Time;durP1;ratioP1;P1;durP2;ratioP2;P2;SDS_P1;SDS_P2;PMS_P1;PMS_P2;Temp;Humidity;BMP_temperature;BMP_pressure;BME280_temperature;BME280_humidity;BME280_pressure;Samples;Min_cycle;Max_cycle;Signal;HPM_P1;HPM_P2
2023/12/07 00:02:05;;;;;;;20.52;17.38;;;5.10;99.90;;;;;;4972756;28;20227;-78
2023/12/07 00:04:32;;;;;;;23.33;17.52;;;5.10;99.90;;;;;;4972090;28;20248;-81
2023/12/07 00:07:01;;;;;;;21.77;16.70;;;5.20;99.90;;;;;;4976507;28;20234;-81
2023/12/07 00:09:31;;;;;;;18.10;15.80;;;5.20;99.90;;;;;;4967544;28;20339;-81
2023/12/07 00:11:58;;;;;;;19.75;17.20;;;5.20;99.90;;;;;;4974872;28;20234;-82
2023/12/07 00:14:25;;;;;;;20.48;17.20;;;5.20;99.90;;;;;;4970965;28;20231;-81
2023/12/07 00:16:52;;;;;;;23.23;18.25;;;5.10;99.90;;;;;;4976856;28;20226;-77
2023/12/07 00:19:19;;;;;;;26.63;19.05;;;5.10;99.90;;;;;;4977127;28;20227;-78
2023/12/07 00:21:48;;;;;;;20.80;17.58;;;5.10;99.90;;;;;;4965116;28;20258;-77
2023/12/07 00:24:16;;;;;;;20.10;17.85;;;5.10;99.90;;;;;;4971583;28;20234;-78
2023/12/07 00:26:43;;;;;;;20.73;16.70;;;5.10;99.90;;;;;;4976067;28;20308;-78
2023/12/07 00:29:10;;;;;;;17.73;15.30;;;5.20;99.90;;;;;;4973809;28;20248;-77
2023/12/07 00:31:37;;;;;;;19.02;15.45;;;5.20;99.90;;;;;;4976806;28;20295;-80
2023/12/07 00:34:05;;;;;;;22.38;17.45;;;5.20;99.90;;;;;;4976289;28;20230;-81
2023/12/07 00:36:35;;;;;;;23.13;18.55;;;5.20;99.90;;;;;;4976183;28;20298;-80
2023/12/07 00:39:04;;;;;;;19.40;16.67;;;5.20;99.90;;;;;;4976360;28;20704;-82
2023/12/07 00:41:33;;;;;;;20.20;16.73;;;5.10;99.90;;;;;;4964120;28;20255;-82
2023/12/07 00:44:00;;;;;;;19.00;16.35;;;5.10;99.90;;;;;;4975401;28;20259;-81
2023/12/07 00:46:27;;;;;;;22.67;17.88;;;5.00;99.90;;;;;;4975183;28;20605;-77
2023/12/07 00:48:54;;;;;;;19.52;15.85;;;5.10;99.90;;;;;;4976323;28;20227;-80
2023/12/07 00:51:21;;;;;;;21.05;18.25;;;5.10;99.90;;;;;;4975594;28;20235;-77
2023/12/07 00:53:48;;;;;;;23.60;18.65;;;5.10;99.90;;;;;;4976928;28;20227;-77
2023/12/07 00:56:15;;;;;;;19.25;16.67;;;5.10;99.90;;;;;;4975798;28;20231;-82
2023/12/07 00:58:44;;;;;;;22.40;18.00;;;5.10;99.90;;;;;;4975922;28;20669;-77
2023/12/07 01:01:11;;;;;;;22.67;16.92;;;5.10;99.90;;;;;;4975008;28;20230;-77
2023/12/07 01:03:40;;;;;;;22.05;17.88;;;5.10;99.90;;;;;;4975016;28;20304;-83
2023/12/07 01:06:07;;;;;;;19.98;17.80;;;5.10;99.90;;;;;;4975380;28;20336;-81
2023/12/07 01:08:34;;;;;;;21.27;17.02;;;5.10;99.90;;;;;;4975199;28;20227;-81
2023/12/07 01:11:02;;;;;;;22.73;16.90;;;5.10;99.90;;;;;;4976565;28;20314;-82
2023/12/07 01:13:29;;;;;;;20.65;17.40;;;5.10;99.90;;;;;;4981870;28;20251;-81
2023/12/07 01:15:57;;;;;;;20.73;17.33;;;5.00;99.90;;;;;;4975644;28;20224;-77
2023/12/07 01:18:24;;;;;;;21.45;17.73;;;5.00;99.90;;;;;;4974672;28;20223;-77
2023/12/07 01:20:51;;;;;;;21.50;17.63;;;5.00;99.90;;;;;;4964302;28;20228;-82
2023/12/07 01:23:18;;;;;;;23.00;17.58;;;5.00;99.90;;;;;;4974567;28;20235;-82
2023/12/07 01:25:45;;;;;;;22.55;18.10;;;5.00;99.90;;;;;;4975442;28;20235;-81
2023/12/07 01:28:13;;;;;;;22.20;17.67;;;5.00;99.90;;;;;;4975723;28;20219;-83
2023/12/07 01:30:40;;;;;;;19.67;17.08;;;5.00;99.90;;;;;;4974767;28;20223;-83
2023/12/07 01:33:08;;;;;;;23.30;18.50;;;5.00;99.90;;;;;;4974763;28;20238;-77
2023/12/07 01:35:35;;;;;;;19.25;16.88;;;5.00;99.90;;;;;;4974478;28;20228;-78
2023/12/07 01:38:02;;;;;;;19.83;17.73;;;5.10;99.90;;;;;;4974732;28;20254;-81
2023/12/07 01:40:29;;;;;;;22.23;16.73;;;5.10;99.90;;;;;;4974830;28;20251;-78
2023/12/07 01:42:56;;;;;;;18.60;16.60;;;5.10;99.90;;;;;;4974973;28;20255;-81
2023/12/07 01:45:27;;;;;;;20.98;17.50;;;5.10;99.90;;;;;;4973709;28;20231;-81
2023/12/07 01:47:59;;;;;;;21.95;17.08;;;5.10;99.90;;;;;;4975027;28;20342;-81
2023/12/07 01:50:29;;;;;;;20.40;17.52;;;5.10;99.90;;;;;;4974813;28;20516;-81
2023/12/07 01:53:02;;;;;;;21.50;17.73;;;5.20;99.90;;;;;;4974531;28;20227;-82
2023/12/07 01:55:33;;;;;;;18.48;16.05;;;5.20;99.90;;;;;;4974465;28;20237;-77
2023/12/07 01:58:00;;;;;;;20.00;16.52;;;5.20;99.90;;;;;;4974913;28;20227;-78
2023/12/07 02:00:28;;;;;;;22.77;17.35;;;5.20;99.90;;;;;;4974017;28;20299;-82
2023/12/07 02:02:56;;;;;;;23.42;17.38;;;5.20;99.90;;;;;;4974806;28;20293;-77
2023/12/07 02:05:23;;;;;;;22.45;18.25;;;5.20;99.90;;;;;;4974370;28;20227;-78
2023/12/07 02:07:52;;;;;;;21.05;16.70;;;5.20;99.90;;;;;;4974441;28;20223;-77
2023/12/07 02:10:20;;;;;;;19.70;16.60;;;5.20;99.90;;;;;;4973984;28;20680;-78
2023/12/07 02:12:48;;;;;;;23.92;17.55;;;5.10;99.90;;;;;;4974372;28;20227;-78
2023/12/07 02:15:15;;;;;;;20.95;17.58;;;5.10;99.90;;;;;;4974510;28;20690;-77
2023/12/07 02:17:55;;;;;;;22.75;16.63;;;5.10;99.90;;;;;;4973295;28;20231;-77
2023/12/07 02:20:32;;;;;;;21.50;18.05;;;5.10;99.90;;;;;;4971034;28;20220;-81
2023/12/07 02:23:07;;;;;;;22.50;16.13;;;5.00;99.90;;;;;;4983057;28;20274;-77
2023/12/07 02:25:38;;;;;;;17.95;15.32;;;5.00;99.90;;;;;;4974178;28;20692;-82
2023/12/07 02:28:06;;;;;;;18.63;15.73;;;5.00;99.90;;;;;;4974687;28;20700;-82
2023/12/07 02:30:33;;;;;;;19.48;17.38;;;5.10;99.90;;;;;;4973987;28;20231;-81
2023/12/07 02:33:00;;;;;;;20.30;15.82;;;5.10;99.90;;;;;;4974342;28;20235;-82
2023/12/07 02:35:29;;;;;;;20.10;16.98;;;5.10;99.90;;;;;;4971825;28;20232;-81
2023/12/07 02:37:57;;;;;;;18.67;15.73;;;5.10;99.90;;;;;;4973912;28;20611;-77
2023/12/07 02:40:26;;;;;;;21.92;16.65;;;5.10;99.90;;;;;;4973760;28;20227;-78
2023/12/07 02:42:53;;;;;;;22.40;17.08;;;5.20;99.90;;;;;;4972592;28;20326;-78
2023/12/07 02:45:23;;;;;;;21.40;17.30;;;5.20;99.90;;;;;;4974444;28;20575;-82
2023/12/07 02:47:50;;;;;;;18.90;16.70;;;5.20;99.90;;;;;;4974118;28;20546;-82
2023/12/07 02:50:17;;;;;;;18.58;16.45;;;5.20;99.90;;;;;;4974616;28;20230;-82
2023/12/07 02:52:45;;;;;;;20.70;16.38;;;5.20;99.90;;;;;;4974138;28;20227;-82
2023/12/07 02:55:12;;;;;;;18.80;16.80;;;5.20;99.90;;;;;;4976634;28;20219;-77
2023/12/07 02:57:39;;;;;;;18.20;15.73;;;5.20;99.90;;;;;;4977837;28;20243;-81
2023/12/07 03:00:08;;;;;;;20.02;16.48;;;5.20;99.90;;;;;;4978062;28;20229;-77
2023/12/07 03:02:37;;;;;;;21.70;17.30;;;5.20;99.90;;;;;;4977624;28;20231;-81
2023/12/07 03:05:05;;;;;;;22.25;18.30;;;5.20;99.90;;;;;;4978785;28;20672;-77
2023/12/07 03:07:32;;;;;;;19.85;17.25;;;5.20;99.90;;;;;;4977183;28;20282;-81
2023/12/07 03:09:59;;;;;;;19.25;17.05;;;5.20;99.90;;;;;;4977789;28;20693;-77
2023/12/07 03:12:26;;;;;;;20.75;17.35;;;5.20;99.90;;;;;;4977268;28;20219;-77
2023/12/07 03:14:53;;;;;;;22.40;18.38;;;5.20;99.90;;;;;;4976917;28;20220;-78
2023/12/07 03:17:20;;;;;;;20.48;17.08;;;5.20;99.90;;;;;;4977941;28;20230;-81
2023/12/07 03:19:48;;;;;;;23.90;18.60;;;5.30;99.90;;;;;;4977261;28;20244;-81
2023/12/07 03:22:15;;;;;;;21.27;17.33;;;5.30;99.90;;;;;;4977024;28;20231;-77
2023/12/07 03:24:47;;;;;;;24.20;17.85;;;5.30;99.90;;;;;;4958561;28;20746;-77
2023/12/07 03:27:16;;;;;;;25.17;18.42;;;5.20;99.90;;;;;;4974895;28;20246;-81
2023/12/07 03:29:43;;;;;;;22.40;18.10;;;5.20;99.90;;;;;;4975899;28;20234;-81
2023/12/07 03:32:10;;;;;;;22.65;17.65;;;5.20;99.90;;;;;;4976900;28;20310;-77
2023/12/07 03:34:37;;;;;;;20.02;16.95;;;5.20;99.90;;;;;;4976668;28;20307;-78
2023/12/07 03:37:06;;;;;;;21.45;17.23;;;5.20;99.90;;;;;;4978053;28;20230;-81
2023/12/07 03:39:34;;;;;;;23.65;19.50;;;5.20;99.90;;;;;;4975128;28;20231;-82
2023/12/07 03:42:01;;;;;;;22.15;19.52;;;5.20;99.90;;;;;;4976702;28;20231;-77
2023/12/07 03:44:28;;;;;;;23.05;18.42;;;5.20;99.90;;;;;;4996464;28;20313;-81
2023/12/07 03:46:56;;;;;;;21.95;17.67;;;5.20;99.90;;;;;;4995780;28;20561;-82
2023/12/07 03:49:23;;;;;;;22.85;17.58;;;5.20;99.90;;;;;;4994832;28;20227;-77
2023/12/07 03:51:50;;;;;;;24.10;19.35;;;5.20;99.90;;;;;;4995568;28;20235;-77
2023/12/07 03:54:18;;;;;;;24.80;19.13;;;5.20;99.90;;;;;;4994433;28;20227;-77
2023/12/07 03:56:46;;;;;;;23.17;19.15;;;5.20;99.90;;;;;;4976720;28;20251;-77
2023/12/07 03:59:13;;;;;;;24.75;19.13;;;5.20;99.90;;;;;;4976131;28;20305;-81
2023/12/07 04:01:40;;;;;;;24.80;18.95;;;5.20;99.90;;;;;;4974450;28;20623;-77
2023/12/07 04:04:07;;;;;;;25.88;19.15;;;5.20;99.90;;;;;;4976738;28;20242;-81
2023/12/07 04:06:34;;;;;;;24.70;20.05;;;5.20;99.90;;;;;;4976555;28;20572;-82
2023/12/07 04:09:01;;;;;;;24.05;19.23;;;5.20;99.90;;;;;;4975110;28;20230;-81
2023/12/07 04:11:29;;;;;;;23.58;19.45;;;5.20;99.90;;;;;;4974832;28;20255;-81
2023/12/07 04:14:02;;;;;;;24.55;18.83;;;5.20;99.90;;;;;;4974299;28;20261;-77
2023/12/07 04:16:29;;;;;;;22.15;19.17;;;5.20;99.90;;;;;;4975714;28;20608;-81
2023/12/07 04:18:56;;;;;;;27.38;19.25;;;5.20;99.90;;;;;;4974846;28;20311;-77
2023/12/07 04:21:23;;;;;;;23.65;19.90;;;5.20;99.90;;;;;;4976169;28;20297;-77
2023/12/07 04:23:50;;;;;;;24.02;18.90;;;5.20;99.90;;;;;;4975652;28;20234;-77
2023/12/07 04:26:17;;;;;;;22.25;18.65;;;5.20;99.90;;;;;;4976080;28;20575;-77
2023/12/07 04:28:45;;;;;;;25.40;20.00;;;5.20;99.90;;;;;;4975567;28;20227;-78
2023/12/07 04:31:12;;;;;;;26.35;20.48;;;5.20;99.90;;;;;;4976233;28;20235;-77
2023/12/07 04:33:40;;;;;;;23.48;18.92;;;5.20;99.90;;;;;;4975189;28;20316;-77
2023/12/07 04:36:08;;;;;;;23.95;19.10;;;5.20;99.90;;;;;;4976124;28;20224;-77
2023/12/07 04:38:35;;;;;;;25.63;19.58;;;5.20;99.90;;;;;;4976125;28;20227;-77
2023/12/07 04:41:02;;;;;;;29.67;22.63;;;5.20;99.90;;;;;;4975487;28;20239;-77
2023/12/07 04:43:30;;;;;;;25.70;21.15;;;5.10;99.90;;;;;;4975577;28;20302;-77
2023/12/07 04:45:58;;;;;;;27.27;20.70;;;5.10;99.90;;;;;;4975375;28;20228;-81
2023/12/07 04:48:25;;;;;;;27.75;21.30;;;5.10;99.90;;;;;;4975697;28;20227;-82
2023/12/07 04:50:52;;;;;;;22.90;18.73;;;5.10;99.90;;;;;;4975607;28;20223;-77
2023/12/07 04:53:20;;;;;;;27.65;19.40;;;5.10;99.90;;;;;;4975937;28;20228;-78
2023/12/07 04:55:50;;;;;;;26.70;19.52;;;5.10;99.90;;;;;;4975340;28;20649;-77
2023/12/07 04:58:17;;;;;;;25.27;19.52;;;5.10;99.90;;;;;;4975217;28;20251;-81
2023/12/07 05:00:44;;;;;;;25.05;18.33;;;5.10;99.90;;;;;;4975076;28;20224;-78
2023/12/07 05:03:13;;;;;;;30.88;20.90;;;5.10;99.90;;;;;;4975927;28;20241;-77
2023/12/07 05:05:40;;;;;;;27.35;19.00;;;5.10;99.90;;;;;;4975839;28;20227;-77
2023/12/07 05:08:08;;;;;;;27.02;19.27;;;5.20;99.90;;;;;;4975554;28;20237;-81
2023/12/07 05:10:35;;;;;;;29.55;20.10;;;5.10;99.90;;;;;;4975495;28;20251;-82
2023/12/07 05:13:02;;;;;;;31.60;20.48;;;5.10;99.90;;;;;;4974655;28;20261;-77
2023/12/07 05:15:37;;;;;;;27.67;21.27;;;5.10;99.90;;;;;;4975058;28;20562;-77
2023/12/07 05:18:04;;;;;;;25.13;19.00;;;5.10;99.90;;;;;;4974690;28;20306;-77
2023/12/07 05:20:36;;;;;;;26.00;19.33;;;5.10;99.90;;;;;;4974666;28;20247;-78
2023/12/07 05:23:03;;;;;;;28.70;19.50;;;5.10;99.90;;;;;;4974839;28;20227;-81
2023/12/07 05:25:30;;;;;;;29.65;19.38;;;5.10;99.90;;;;;;4974950;28;20227;-82
2023/12/07 05:27:59;;;;;;;31.30;21.35;;;5.10;99.90;;;;;;4974174;28;20231;-81
2023/12/07 05:30:26;;;;;;;27.27;19.15;;;5.10;99.90;;;;;;4975285;28;20266;-77
2023/12/07 05:32:53;;;;;;;27.45;20.42;;;5.10;99.90;;;;;;4974448;28;20238;-77
2023/12/07 05:35:21;;;;;;;28.60;19.92;;;5.10;99.90;;;;;;4975110;28;20227;-81
2023/12/07 05:37:49;;;;;;;33.10;21.98;;;5.10;99.90;;;;;;4974514;28;20231;-81
2023/12/07 05:40:16;;;;;;;30.67;20.80;;;5.10;99.90;;;;;;4975111;28;20279;-81
2023/12/07 05:42:43;;;;;;;33.40;20.40;;;5.10;99.90;;;;;;4975267;28;20705;-77
2023/12/07 05:45:11;;;;;;;30.60;20.48;;;5.10;99.90;;;;;;4974856;28;20223;-81
2023/12/07 05:47:38;;;;;;;32.15;20.58;;;5.10;99.90;;;;;;4974942;28;20250;-77
2023/12/07 05:50:08;;;;;;;31.80;20.45;;;5.10;99.90;;;;;;4973898;28;20231;-79
2023/12/07 05:52:36;;;;;;;29.80;19.75;;;5.10;99.90;;;;;;4974687;28;20223;-81
2023/12/07 05:55:06;;;;;;;27.70;18.80;;;5.10;99.90;;;;;;4973906;28;20229;-81
2023/12/07 05:57:33;;;;;;;28.40;20.15;;;5.10;99.90;;;;;;4975114;28;20242;-77
2023/12/07 06:00:01;;;;;;;30.48;17.65;;;5.10;99.90;;;;;;4974526;28;20235;-78
2023/12/07 06:02:28;;;;;;;25.40;17.90;;;5.10;99.90;;;;;;4974951;28;20262;-77
2023/12/07 06:04:55;;;;;;;26.48;17.52;;;5.10;99.90;;;;;;4974609;28;20314;-81
2023/12/07 06:07:21;;;;;;;25.15;18.42;;;5.10;99.90;;;;;;4974783;28;20226;-77
2023/12/07 06:09:48;;;;;;;25.95;19.45;;;5.10;99.90;;;;;;4974115;28;20306;-78
2023/12/07 06:12:17;;;;;;;26.35;18.25;;;5.10;99.90;;;;;;4974629;28;20238;-82
2023/12/07 06:14:44;;;;;;;26.73;19.02;;;5.10;99.90;;;;;;4974994;28;20556;-81
2023/12/07 06:17:11;;;;;;;27.52;19.17;;;5.10;99.90;;;;;;4975028;28;20290;-81
2023/12/07 06:19:38;;;;;;;30.70;18.75;;;5.10;99.90;;;;;;4975085;28;20747;-77
2023/12/07 06:22:05;;;;;;;27.75;20.10;;;5.20;99.90;;;;;;4974014;28;20242;-76
2023/12/07 06:24:32;;;;;;;29.98;18.75;;;5.20;99.90;;;;;;4974849;28;20232;-81
2023/12/07 06:27:01;;;;;;;26.48;18.00;;;5.20;99.90;;;;;;4974469;28;20251;-81
2023/12/07 06:29:30;;;;;;;27.55;19.88;;;5.20;99.90;;;;;;4974642;28;20231;-81
2023/12/07 06:31:57;;;;;;;27.33;18.80;;;5.20;99.90;;;;;;4977384;28;20314;-78
2023/12/07 06:34:27;;;;;;;30.77;19.98;;;5.20;99.90;;;;;;4978365;28;20572;-81
2023/12/07 06:36:54;;;;;;;26.25;20.00;;;5.20;99.90;;;;;;4978053;28;20286;-78
2023/12/07 06:39:22;;;;;;;29.58;20.17;;;5.20;99.90;;;;;;4977839;28;20231;-77
2023/12/07 06:41:49;;;;;;;26.40;19.80;;;5.20;99.90;;;;;;4978166;28;20699;-81
2023/12/07 06:44:16;;;;;;;27.55;21.23;;;5.20;99.90;;;;;;4977377;28;20249;-77
2023/12/07 06:46:43;;;;;;;28.33;19.60;;;5.20;99.90;;;;;;4978399;28;20231;-77
2023/12/07 06:49:12;;;;;;;28.45;19.05;;;5.20;99.90;;;;;;4977203;28;20289;-81
2023/12/07 06:51:40;;;;;;;30.25;20.15;;;5.20;99.90;;;;;;4977964;28;20310;-81
2023/12/07 06:54:07;;;;;;;28.85;19.77;;;5.20;99.90;;;;;;4977270;28;20274;-78
2023/12/07 06:56:34;;;;;;;29.40;19.67;;;5.20;99.90;;;;;;4978145;28;20234;-81
2023/12/07 06:59:01;;;;;;;30.95;20.75;;;5.20;99.90;;;;;;4977556;28;20231;-81
2023/12/07 07:01:29;;;;;;;27.90;18.85;;;5.20;99.90;;;;;;4978249;28;20246;-81
2023/12/07 07:03:57;;;;;;;29.08;18.50;;;5.20;99.90;;;;;;4977473;28;20234;-81
2023/12/07 07:06:27;;;;;;;31.70;20.90;;;5.20;99.90;;;;;;4977845;28;20234;-82
2023/12/07 07:08:54;;;;;;;31.48;21.00;;;5.20;99.90;;;;;;4978088;28;20566;-82
2023/12/07 07:11:21;;;;;;;30.25;18.73;;;5.20;99.90;;;;;;4976943;28;20219;-81
2023/12/07 07:13:48;;;;;;;27.13;18.70;;;5.20;99.90;;;;;;4977862;28;20238;-81
2023/12/07 07:16:15;;;;;;;32.80;20.25;;;5.20;99.90;;;;;;4977137;28;20709;-77
2023/12/07 07:18:42;;;;;;;30.90;19.40;;;5.20;99.90;;;;;;4977978;28;20634;-82
2023/12/07 07:21:10;;;;;;;24.85;18.10;;;5.20;99.90;;;;;;4981595;28;20235;-81
2023/12/07 07:23:37;;;;;;;30.35;18.75;;;5.20;99.90;;;;;;4981880;28;20310;-81
2023/12/07 07:26:05;;;;;;;27.67;19.48;;;5.20;99.90;;;;;;4981196;28;20247;-77
2023/12/07 07:28:32;;;;;;;26.52;18.25;;;5.20;99.90;;;;;;4984336;28;20234;-81
2023/12/07 07:30:59;;;;;;;26.48;19.35;;;5.20;99.90;;;;;;4983435;28;20243;-80
2023/12/07 07:33:26;;;;;;;35.00;20.92;;;5.20;99.90;;;;;;4980482;28;20235;-81
2023/12/07 07:35:53;;;;;;;27.67;19.10;;;5.20;99.90;;;;;;4978043;28;20220;-81
2023/12/07 07:38:23;;;;;;;27.45;19.35;;;5.20;99.90;;;;;;4977173;28;20235;-81
2023/12/07 07:40:50;;;;;;;30.15;20.38;;;5.20;99.90;;;;;;4977588;28;20223;-81
2023/12/07 07:43:17;;;;;;;30.35;19.50;;;5.20;99.90;;;;;;4976005;28;20266;-77
2023/12/07 07:45:45;;;;;;;29.35;20.80;;;5.20;99.90;;;;;;4977004;28;20233;-77
2023/12/07 07:48:12;;;;;;;31.58;20.33;;;5.20;99.90;;;;;;4976613;28;20313;-81
2023/12/07 07:50:40;;;;;;;31.27;22.10;;;5.20;99.90;;;;;;4977105;28;20223;-77
2023/12/07 07:53:07;;;;;;;33.85;23.13;;;5.20;99.90;;;;;;4976371;28;20684;-78
2023/12/07 07:55:35;;;;;;;33.53;19.98;;;5.20;99.90;;;;;;4976985;28;20273;-77
2023/12/07 07:58:02;;;;;;;27.02;18.58;;;5.30;99.90;;;;;;4976354;28;20685;-78
2023/12/07 08:00:30;;;;;;;32.05;21.50;;;5.30;99.90;;;;;;4976572;28;20302;-77
2023/12/07 08:02:57;;;;;;;29.25;21.05;;;5.30;99.90;;;;;;4976915;28;20231;-77
2023/12/07 08:05:24;;;;;;;29.52;19.65;;;5.30;99.90;;;;;;4976154;28;20219;-78
2023/12/07 08:07:52;;;;;;;29.77;20.80;;;5.30;99.90;;;;;;4976605;28;20302;-77
2023/12/07 08:10:20;;;;;;;28.90;20.17;;;5.20;99.90;;;;;;4975649;28;20330;-77
2023/12/07 08:12:48;;;;;;;29.30;20.60;;;5.20;99.90;;;;;;4976258;28;20227;-77
2023/12/07 08:15:15;;;;;;;27.20;18.77;;;5.20;99.90;;;;;;4975967;28;20250;-80
2023/12/07 08:17:43;;;;;;;28.30;20.23;;;5.20;99.90;;;;;;4976637;28;20223;-77
2023/12/07 08:20:20;;;;;;;26.85;17.80;;;5.20;99.90;;;;;;4976509;28;20223;-78
2023/12/07 08:22:48;;;;;;;28.38;18.20;;;5.30;99.90;;;;;;4981825;28;20227;-81
2023/12/07 08:25:17;;;;;;;29.10;18.80;;;5.30;99.90;;;;;;4976202;28;20625;-77
2023/12/07 08:27:45;;;;;;;29.17;18.70;;;5.20;99.90;;;;;;4965611;28;20231;-77
2023/12/07 08:30:14;;;;;;;29.45;18.90;;;5.30;99.90;;;;;;4975920;28;20602;-78
2023/12/07 08:32:41;;;;;;;27.20;20.30;;;5.30;99.90;;;;;;4976599;28;20286;-81
2023/12/07 08:35:09;;;;;;;24.85;18.02;;;5.40;99.90;;;;;;4976309;28;20623;-81
2023/12/07 08:37:38;;;;;;;28.25;18.98;;;5.30;99.90;;;;;;4975536;28;20664;-81
2023/12/07 08:40:06;;;;;;;25.52;18.50;;;5.30;99.90;;;;;;4976162;28;20607;-81
2023/12/07 08:42:33;;;;;;;30.40;20.15;;;5.30;99.90;;;;;;4975115;28;20231;-81
2023/12/07 08:45:00;;;;;;;28.98;17.60;;;5.30;99.90;;;;;;4975834;28;20282;-81
2023/12/07 08:47:30;;;;;;;25.63;19.63;;;5.30;99.90;;;;;;4975607;28;20238;-81
2023/12/07 08:49:57;;;;;;;28.95;19.02;;;5.40;99.90;;;;;;4975921;28;20266;-81
2023/12/07 08:52:24;;;;;;;28.13;19.98;;;5.30;99.90;;;;;;4975270;28;20243;-81
2023/12/07 08:54:51;;;;;;;25.55;17.27;;;5.40;99.90;;;;;;4975758;28;20600;-81
2023/12/07 08:57:19;;;;;;;24.30;18.25;;;5.30;99.90;;;;;;4975053;28;20227;-81
2023/12/07 08:59:46;;;;;;;26.98;19.95;;;5.40;99.90;;;;;;4976186;28;20681;-81
2023/12/07 09:02:13;;;;;;;26.17;18.75;;;5.40;99.90;;;;;;4975769;28;20688;-81
2023/12/07 09:04:41;;;;;;;24.27;17.55;;;5.40;99.90;;;;;;4975598;28;20231;-81
2023/12/07 09:07:09;;;;;;;22.35;17.15;;;5.40;99.90;;;;;;4975761;28;20243;-81
2023/12/07 09:09:36;;;;;;;25.75;17.52;;;5.40;99.90;;;;;;4975370;28;20230;-81
2023/12/07 09:12:04;;;;;;;23.98;15.85;;;5.40;99.90;;;;;;4975855;28;20231;-81
2023/12/07 09:14:31;;;;;;;25.83;19.45;;;5.40;99.90;;;;;;4975169;28;20274;-81
2023/12/07 09:16:58;;;;;;;23.63;17.65;;;5.40;99.90;;;;;;4975499;28;20258;-81
2023/12/07 09:19:25;;;;;;;25.90;18.73;;;5.50;99.90;;;;;;4975168;28;20223;-81
2023/12/07 09:21:53;;;;;;;29.20;20.05;;;5.50;99.90;;;;;;4975455;28;20685;-81
2023/12/07 09:24:21;;;;;;;27.58;18.83;;;5.40;99.90;;;;;;4974837;28;20231;-81
2023/12/07 09:26:48;;;;;;;25.52;19.45;;;5.50;99.90;;;;;;4975456;28;20223;-81
2023/12/07 09:29:15;;;;;;;25.50;20.17;;;5.40;99.90;;;;;;4975018;28;20315;-81
2023/12/07 09:31:42;;;;;;;24.05;17.65;;;5.40;99.90;;;;;;4974943;28;20282;-81
2023/12/07 09:34:09;;;;;;;25.25;18.05;;;5.40;99.90;;;;;;4975231;28;20558;-81
2023/12/07 09:36:36;;;;;;;26.73;17.90;;;5.40;99.90;;;;;;4975040;28;20236;-81
2023/12/07 09:39:04;;;;;;;23.75;17.75;;;5.50;99.90;;;;;;4974964;28;20222;-77
2023/12/07 09:41:31;;;;;;;21.02;16.33;;;5.50;99.90;;;;;;4974578;28;20262;-81
2023/12/07 09:44:00;;;;;;;27.25;17.50;;;5.50;99.90;;;;;;4975080;28;20227;-82
2023/12/07 09:46:29;;;;;;;22.27;17.30;;;5.40;99.90;;;;;;4974610;28;20290;-81
2023/12/07 09:48:58;;;;;;;22.90;17.33;;;5.50;99.90;;;;;;4974908;28;20227;-77
2023/12/07 09:51:26;;;;;;;25.75;17.10;;;5.50;99.90;;;;;;4974477;28;20227;-78
2023/12/07 09:53:54;;;;;;;24.10;16.85;;;5.50;99.90;;;;;;4974774;28;20238;-77
2023/12/07 09:56:22;;;;;;;26.45;19.13;;;5.50;99.90;;;;;;4974615;28;20326;-78
2023/12/07 09:58:49;;;;;;;26.23;18.33;;;5.50;99.90;;;;;;4975212;28;20227;-82
2023/12/07 10:01:16;;;;;;;27.58;19.67;;;5.50;99.90;;;;;;4974524;28;20231;-81
2023/12/07 10:03:46;;;;;;;27.77;20.30;;;5.50;99.90;;;;;;4974479;28;20223;-81
2023/12/07 10:06:13;;;;;;;27.20;17.80;;;5.50;99.90;;;;;;4979310;28;20238;-75
2023/12/07 10:08:40;;;;;;;25.10;18.35;;;5.50;99.90;;;;;;4980943;28;20227;-77
2023/12/07 10:11:09;;;;;;;27.17;19.30;;;5.50;99.90;;;;;;4981239;28;20277;-76
2023/12/07 10:13:38;;;;;;;31.38;20.00;;;5.50;99.90;;;;;;4980758;28;20227;-77
2023/12/07 10:16:10;;;;;;;29.23;19.20;;;5.50;99.90;;;;;;4981147;28;20616;-77
2023/12/07 10:18:40;;;;;;;27.85;20.05;;;5.50;99.90;;;;;;4980893;28;20230;-77
2023/12/07 10:21:09;;;;;;;27.73;19.15;;;5.50;99.90;;;;;;4981226;28;20707;-81
2023/12/07 10:23:36;;;;;;;29.35;18.55;;;5.50;99.90;;;;;;4979406;28;20576;-81
2023/12/07 10:26:04;;;;;;;30.20;19.25;;;5.50;99.90;;;;;;4981304;28;20226;-81
2023/12/07 10:28:31;;;;;;;28.88;19.75;;;5.50;99.90;;;;;;4980577;28;20223;-81
2023/12/07 10:30:59;;;;;;;27.38;17.50;;;5.50;99.90;;;;;;4981359;28;20234;-77
2023/12/07 10:33:27;;;;;;;31.08;22.45;;;5.40;99.90;;;;;;4980200;28;20554;-80
2023/12/07 10:35:54;;;;;;;31.48;21.15;;;5.40;99.90;;;;;;4981198;28;20251;-81
2023/12/07 10:38:21;;;;;;;28.42;18.98;;;5.40;99.90;;;;;;4981189;28;20222;-81
2023/12/07 10:40:50;;;;;;;28.98;20.23;;;5.40;99.90;;;;;;4980874;28;20227;-81
2023/12/07 10:43:19;;;;;;;26.88;19.17;;;5.40;99.90;;;;;;4980548;28;20243;-81
2023/12/07 10:45:49;;;;;;;31.48;21.10;;;5.40;99.90;;;;;;4980389;28;20599;-81
2023/12/07 10:48:18;;;;;;;27.65;20.13;;;5.40;99.90;;;;;;4980823;28;20736;-76
2023/12/07 10:50:49;;;;;;;27.90;20.40;;;5.50;99.90;;;;;;4980375;28;20457;-77
2023/12/07 10:53:22;;;;;;;28.92;19.58;;;5.50;99.90;;;;;;4980449;28;20227;-77
2023/12/07 10:55:56;;;;;;;30.05;22.23;;;5.50;99.90;;;;;;4980673;28;20227;-77
2023/12/07 10:58:25;;;;;;;30.52;20.35;;;5.60;99.90;;;;;;4981033;28;20682;-83
2023/12/07 11:00:53;;;;;;;25.92;20.25;;;5.60;99.90;;;;;;4980769;28;20254;-82
2023/12/07 11:03:22;;;;;;;29.13;20.38;;;5.60;99.90;;;;;;4980885;28;20540;-80
2023/12/07 11:05:49;;;;;;;31.58;19.42;;;5.60;99.90;;;;;;4980454;28;20661;-81
2023/12/07 11:08:23;;;;;;;27.35;17.90;;;5.60;99.90;;;;;;4980992;28;20235;-77
2023/12/07 11:11:00;;;;;;;28.67;19.88;;;5.60;99.90;;;;;;4980344;28;20262;-76
2023/12/07 11:13:30;;;;;;;32.83;21.90;;;5.60;99.90;;;;;;4980359;28;20231;-77
2023/12/07 11:15:57;;;;;;;25.60;18.45;;;5.60;99.90;;;;;;4979717;28;20227;-77
2023/12/07 11:18:31;;;;;;;30.95;19.73;;;5.70;99.90;;;;;;4976617;28;20234;-77
2023/12/07 11:20:58;;;;;;;27.20;19.60;;;5.70;99.90;;;;;;4977444;28;20232;-81
2023/12/07 11:23:28;;;;;;;23.27;18.58;;;5.70;99.90;;;;;;4977903;28;20574;-77
2023/12/07 11:25:55;;;;;;;25.58;17.58;;;5.70;99.90;;;;;;4977384;28;20294;-76
2023/12/07 11:28:36;;;;;;;24.73;17.92;;;5.70;99.90;;;;;;4977619;28;20231;-77
2023/12/07 11:31:04;;;;;;;21.60;17.20;;;5.70;99.90;;;;;;4977200;28;20231;-80
2023/12/07 11:33:32;;;;;;;27.35;19.65;;;5.70;99.90;;;;;;4977146;28;20242;-80
2023/12/07 11:36:10;;;;;;;25.92;19.40;;;5.80;99.90;;;;;;4977645;28;20270;-76
2023/12/07 11:38:37;;;;;;;26.73;17.20;;;5.70;99.90;;;;;;4978080;28;20712;-77
2023/12/07 11:41:05;;;;;;;25.20;17.25;;;5.70;99.90;;;;;;4977430;28;20297;-76
2023/12/07 11:43:43;;;;;;;27.05;18.90;;;5.80;99.90;;;;;;4977209;28;20231;-76
2023/12/07 11:46:11;;;;;;;27.73;19.83;;;5.70;99.90;;;;;;4977655;28;20241;-80
2023/12/07 11:48:39;;;;;;;27.77;19.98;;;5.70;99.90;;;;;;4977532;28;20235;-76
2023/12/07 11:51:08;;;;;;;24.48;19.15;;;5.70;99.90;;;;;;4976636;28;20231;-76
2023/12/07 11:53:37;;;;;;;26.17;18.40;;;5.60;99.90;;;;;;4976420;28;20266;-77
2023/12/07 11:56:05;;;;;;;25.67;18.50;;;5.70;99.90;;;;;;4976654;28;20305;-81
2023/12/07 11:58:34;;;;;;;27.67;20.30;;;5.70;99.90;;;;;;4977371;28;20228;-80
2023/12/07 12:01:02;;;;;;;26.15;18.20;;;5.70;99.90;;;;;;4976261;28;20227;-80
2023/12/07 12:03:32;;;;;;;26.67;19.75;;;5.60;99.90;;;;;;4976914;28;20235;-77
2023/12/07 12:06:00;;;;;;;29.55;21.70;;;5.70;99.90;;;;;;4976136;28;20238;-76
2023/12/07 12:08:27;;;;;;;33.70;22.63;;;5.60;99.90;;;;;;4976279;28;20747;-81
2023/12/07 12:10:57;;;;;;;28.98;21.95;;;5.60;99.90;;;;;;4976569;28;20227;-80
2023/12/07 12:13:29;;;;;;;28.17;20.85;;;5.60;99.90;;;;;;4976465;28;20572;-80
2023/12/07 12:15:57;;;;;;;30.33;20.27;;;5.60;99.90;;;;;;4976104;28;20230;-80
2023/12/07 12:18:25;;;;;;;31.65;22.35;;;5.60;99.90;;;;;;4976294;28;20326;-80
2023/12/07 12:20:52;;;;;;;31.13;21.17;;;5.60;99.90;;;;;;4976119;28;20233;-80
2023/12/07 12:23:21;;;;;;;29.40;20.77;;;5.60;99.90;;;;;;4976427;28;20294;-80
2023/12/07 12:25:49;;;;;;;28.13;20.40;;;5.60;99.90;;;;;;4976324;28;20235;-80
2023/12/07 12:28:19;;;;;;;30.92;21.00;;;5.60;99.90;;;;;;4975535;28;20227;-80
2023/12/07 12:30:46;;;;;;;27.75;21.00;;;5.60;99.90;;;;;;4976374;28;20235;-80
2023/12/07 12:33:14;;;;;;;29.35;22.50;;;5.70;99.90;;;;;;4975665;28;20264;-80
2023/12/07 12:35:41;;;;;;;30.58;21.80;;;5.60;99.90;;;;;;4976438;28;20564;-80
2023/12/07 12:38:11;;;;;;;32.00;21.67;;;5.60;99.90;;;;;;4975871;28;20643;-80
2023/12/07 12:40:41;;;;;;;36.97;21.25;;;5.60;99.90;;;;;;4976233;28;20226;-80